Central Wisconsin Airport
KCWA : rendu visible

Aérodrome :











RETROUVEZ-NOUS SUR...

 
LOGIN :

S'inscrire | Disclaimer

   EN    FR    IT 

 









Légende :    VFR   VFR Marginal   IFR   IFR Intensif   IFR Très Intensif
Visi : 
Plafond : 
>= 8 km
>= 3000ft
5 à 8 km
1000 à 3000 ft
1500m à 5 km
500 à 1000 ft
800 à 1500m
200 à 500 ft
< 800m
< 200 ft
Symboles :   Orages  Brouillard  Fortes neiges  Fortes précipitations  Vent > 20 kt






- Altitude de l'aérodrome : 1277 ft


KCWA - Central Wisconsin

DERNIER METAR :
  • 121750Z 29005KT 10SM SKC M09/M19 A3040

METARs EXPIRÉS :
  • 121648Z 28007KT 10SM FEW020 M11/M18 A3043
  • 121547Z 31007KT 10SM FEW020 M12/M18 A3044

TAF KCWA
Valide du 12 à 18h jusqu'au 13 à 18h UTC


121720Z 1218/1318 28005KT P6SM SKC
FM122300 18004KT P6SM SCT250
FM130700 17008G16KT P6SM BKN090
FM131100 18010G17KT P6SM -SN OVC060
FM131500 18009G15KT 2SM -SN BKN025



MET'MAP, la Météo Aéronautique d'un coup d'oeil ! - Copyright ORBIFLY Décembre 2007 - Disclaimer

ORBIFLY MET'MAP TEAM :

Programmation & Développement : Alexandra Zaïnal
Conception & Développement : Baudouin d'Aumeries
Co-Programmation & Développement : Marc-Olivier Méhu
Soutien technique & logistique : Manuel Goepfert

Contact : metmap@orbifly.com




SOURCES & CREDITS :

   NOAA       Earth
Advisory